sensor_id;sensor_type;location;lat;lon;timestamp;P1;durP1;ratioP1;P2;durP2;ratioP2
48925;SDS011;39838;59.938;30.642;2024-02-23T00:00:24;22.02;;;11.48;;
48925;SDS011;39838;59.938;30.642;2024-02-23T00:02:51;21.88;;;11.50;;
48925;SDS011;39838;59.938;30.642;2024-02-23T00:05:19;23.00;;;12.60;;
48925;SDS011;39838;59.938;30.642;2024-02-23T00:07:46;25.55;;;12.57;;
48925;SDS011;39838;59.938;30.642;2024-02-23T00:10:14;21.50;;;11.60;;
48925;SDS011;39838;59.938;30.642;2024-02-23T00:12:43;24.10;;;11.55;;
48925;SDS011;39838;59.938;30.642;2024-02-23T00:15:12;21.48;;;12.10;;
48925;SDS011;39838;59.938;30.642;2024-02-23T00:17:40;21.10;;;11.65;;
48925;SDS011;39838;59.938;30.642;2024-02-23T00:20:08;19.08;;;11.48;;
48925;SDS011;39838;59.938;30.642;2024-02-23T00:22:37;19.33;;;10.50;;
48925;SDS011;39838;59.938;30.642;2024-02-23T00:25:05;19.92;;;10.82;;
48925;SDS011;39838;59.938;30.642;2024-02-23T00:27:33;19.33;;;10.52;;
48925;SDS011;39838;59.938;30.642;2024-02-23T00:30:01;19.48;;;11.38;;
48925;SDS011;39838;59.938;30.642;2024-02-23T00:32:30;20.25;;;10.80;;
48925;SDS011;39838;59.938;30.642;2024-02-23T00:34:58;17.75;;;10.43;;
48925;SDS011;39838;59.938;30.642;2024-02-23T00:37:25;19.90;;;10.38;;
48925;SDS011;39838;59.938;30.642;2024-02-23T00:39:52;18.77;;;10.77;;
48925;SDS011;39838;59.938;30.642;2024-02-23T00:42:19;21.58;;;10.55;;
48925;SDS011;39838;59.938;30.642;2024-02-23T00:44:47;18.65;;;10.68;;
48925;SDS011;39838;59.938;30.642;2024-02-23T00:47:15;17.33;;;9.90;;
48925;SDS011;39838;59.938;30.642;2024-02-23T00:49:43;18.77;;;10.45;;
48925;SDS011;39838;59.938;30.642;2024-02-23T00:52:10;19.58;;;10.45;;
48925;SDS011;39838;59.938;30.642;2024-02-23T00:54:37;17.45;;;9.60;;
48925;SDS011;39838;59.938;30.642;2024-02-23T00:57:04;18.48;;;10.05;;
48925;SDS011;39838;59.938;30.642;2024-02-23T00:59:31;18.88;;;10.43;;
48925;SDS011;39838;59.938;30.642;2024-02-23T01:01:59;18.70;;;10.40;;
48925;SDS011;39838;59.938;30.642;2024-02-23T01:04:27;18.85;;;10.35;;
48925;SDS011;39838;59.938;30.642;2024-02-23T01:06:54;18.08;;;10.20;;
48925;SDS011;39838;59.938;30.642;2024-02-23T01:09:21;19.35;;;10.63;;
48925;SDS011;39838;59.938;30.642;2024-02-23T01:11:49;20.15;;;10.40;;
48925;SDS011;39838;59.938;30.642;2024-02-23T01:14:16;19.98;;;10.35;;
48925;SDS011;39838;59.938;30.642;2024-02-23T01:16:43;19.75;;;11.00;;
48925;SDS011;39838;59.938;30.642;2024-02-23T01:19:11;19.83;;;11.10;;
48925;SDS011;39838;59.938;30.642;2024-02-23T01:21:40;19.75;;;10.93;;
48925;SDS011;39838;59.938;30.642;2024-02-23T01:24:07;19.45;;;10.85;;
48925;SDS011;39838;59.938;30.642;2024-02-23T01:26:34;19.02;;;10.50;;
48925;SDS011;39838;59.938;30.642;2024-02-23T01:29:01;19.50;;;10.63;;
48925;SDS011;39838;59.938;30.642;2024-02-23T01:31:30;19.15;;;11.38;;
48925;SDS011;39838;59.938;30.642;2024-02-23T01:33:57;22.92;;;11.25;;
48925;SDS011;39838;59.938;30.642;2024-02-23T01:36:24;20.90;;;11.35;;
48925;SDS011;39838;59.938;30.642;2024-02-23T01:38:53;22.00;;;11.73;;
48925;SDS011;39838;59.938;30.642;2024-02-23T01:41:20;21.80;;;10.93;;
48925;SDS011;39838;59.938;30.642;2024-02-23T01:43:48;21.38;;;11.45;;
48925;SDS011;39838;59.938;30.642;2024-02-23T01:46:16;22.60;;;11.52;;
48925;SDS011;39838;59.938;30.642;2024-02-23T01:48:44;23.40;;;12.43;;
48925;SDS011;39838;59.938;30.642;2024-02-23T01:51:12;22.60;;;11.85;;
48925;SDS011;39838;59.938;30.642;2024-02-23T01:53:39;20.83;;;12.27;;
48925;SDS011;39838;59.938;30.642;2024-02-23T01:56:08;22.40;;;11.82;;
48925;SDS011;39838;59.938;30.642;2024-02-23T01:58:37;22.17;;;11.93;;
48925;SDS011;39838;59.938;30.642;2024-02-23T02:01:06;25.05;;;12.45;;
48925;SDS011;39838;59.938;30.642;2024-02-23T02:03:33;22.15;;;12.40;;
48925;SDS011;39838;59.938;30.642;2024-02-23T02:06:00;22.30;;;12.07;;
48925;SDS011;39838;59.938;30.642;2024-02-23T02:08:27;19.90;;;12.15;;
48925;SDS011;39838;59.938;30.642;2024-02-23T02:10:55;21.73;;;11.45;;
48925;SDS011;39838;59.938;30.642;2024-02-23T02:13:24;21.83;;;11.68;;
48925;SDS011;39838;59.938;30.642;2024-02-23T02:15:51;21.02;;;11.85;;
48925;SDS011;39838;59.938;30.642;2024-02-23T02:18:18;19.92;;;11.02;;
48925;SDS011;39838;59.938;30.642;2024-02-23T02:20:49;21.52;;;11.82;;
48925;SDS011;39838;59.938;30.642;2024-02-23T02:23:19;22.88;;;12.15;;
48925;SDS011;39838;59.938;30.642;2024-02-23T02:25:51;20.65;;;11.80;;
48925;SDS011;39838;59.938;30.642;2024-02-23T02:28:19;22.70;;;11.57;;
48925;SDS011;39838;59.938;30.642;2024-02-23T02:30:49;24.30;;;11.52;;
48925;SDS011;39838;59.938;30.642;2024-02-23T02:33:18;21.48;;;11.52;;
48925;SDS011;39838;59.938;30.642;2024-02-23T02:35:45;23.40;;;11.98;;
48925;SDS011;39838;59.938;30.642;2024-02-23T02:38:12;20.38;;;11.30;;
48925;SDS011;39838;59.938;30.642;2024-02-23T02:40:40;20.08;;;11.50;;
48925;SDS011;39838;59.938;30.642;2024-02-23T02:43:07;21.08;;;11.82;;
48925;SDS011;39838;59.938;30.642;2024-02-23T02:45:34;21.55;;;11.50;;
48925;SDS011;39838;59.938;30.642;2024-02-23T02:48:03;22.42;;;11.15;;
48925;SDS011;39838;59.938;30.642;2024-02-23T02:50:30;19.35;;;10.73;;
48925;SDS011;39838;59.938;30.642;2024-02-23T02:52:58;21.10;;;11.77;;
48925;SDS011;39838;59.938;30.642;2024-02-23T02:55:25;20.48;;;10.93;;
48925;SDS011;39838;59.938;30.642;2024-02-23T02:57:52;20.60;;;10.70;;
48925;SDS011;39838;59.938;30.642;2024-02-23T03:00:19;20.83;;;10.98;;
48925;SDS011;39838;59.938;30.642;2024-02-23T03:02:46;20.52;;;11.48;;
48925;SDS011;39838;59.938;30.642;2024-02-23T03:05:15;21.15;;;10.95;;
48925;SDS011;39838;59.938;30.642;2024-02-23T03:07:42;21.27;;;10.98;;
48925;SDS011;39838;59.938;30.642;2024-02-23T03:10:09;19.58;;;11.60;;
48925;SDS011;39838;59.938;30.642;2024-02-23T03:12:36;21.13;;;11.05;;
48925;SDS011;39838;59.938;30.642;2024-02-23T03:15:04;20.00;;;11.98;;
48925;SDS011;39838;59.938;30.642;2024-02-23T03:17:32;20.10;;;11.05;;
48925;SDS011;39838;59.938;30.642;2024-02-23T03:20:00;21.08;;;11.23;;
48925;SDS011;39838;59.938;30.642;2024-02-23T03:22:32;21.67;;;11.30;;
48925;SDS011;39838;59.938;30.642;2024-02-23T03:24:59;25.05;;;12.07;;
48925;SDS011;39838;59.938;30.642;2024-02-23T03:27:33;23.38;;;11.90;;
48925;SDS011;39838;59.938;30.642;2024-02-23T03:30:02;23.48;;;11.98;;
48925;SDS011;39838;59.938;30.642;2024-02-23T03:32:31;21.35;;;11.73;;
48925;SDS011;39838;59.938;30.642;2024-02-23T03:35:02;21.55;;;12.00;;
48925;SDS011;39838;59.938;30.642;2024-02-23T03:37:30;20.85;;;11.57;;
48925;SDS011;39838;59.938;30.642;2024-02-23T03:39:58;21.73;;;11.70;;
48925;SDS011;39838;59.938;30.642;2024-02-23T03:42:26;21.00;;;11.10;;
48925;SDS011;39838;59.938;30.642;2024-02-23T03:44:54;20.70;;;10.77;;
48925;SDS011;39838;59.938;30.642;2024-02-23T03:47:21;22.67;;;11.07;;
48925;SDS011;39838;59.938;30.642;2024-02-23T03:49:48;21.08;;;11.13;;
48925;SDS011;39838;59.938;30.642;2024-02-23T03:52:15;21.38;;;11.13;;
48925;SDS011;39838;59.938;30.642;2024-02-23T03:54:44;18.92;;;10.85;;
48925;SDS011;39838;59.938;30.642;2024-02-23T03:57:11;17.10;;;9.70;;
48925;SDS011;39838;59.938;30.642;2024-02-23T03:59:38;19.10;;;10.45;;
48925;SDS011;39838;59.938;30.642;2024-02-23T04:02:06;17.08;;;9.73;;
48925;SDS011;39838;59.938;30.642;2024-02-23T04:04:34;18.17;;;9.95;;
48925;SDS011;39838;59.938;30.642;2024-02-23T04:07:01;17.17;;;9.90;;
48925;SDS011;39838;59.938;30.642;2024-02-23T04:09:28;19.88;;;10.05;;
48925;SDS011;39838;59.938;30.642;2024-02-23T04:11:57;15.63;;;9.23;;
48925;SDS011;39838;59.938;30.642;2024-02-23T04:14:24;15.98;;;9.43;;
48925;SDS011;39838;59.938;30.642;2024-02-23T04:16:51;16.67;;;9.48;;
48925;SDS011;39838;59.938;30.642;2024-02-23T04:19:19;17.92;;;9.85;;
48925;SDS011;39838;59.938;30.642;2024-02-23T04:21:46;18.88;;;9.57;;
48925;SDS011;39838;59.938;30.642;2024-02-23T04:24:13;17.23;;;9.85;;
48925;SDS011;39838;59.938;30.642;2024-02-23T04:26:40;16.55;;;9.32;;
48925;SDS011;39838;59.938;30.642;2024-02-23T04:29:10;15.45;;;9.25;;
48925;SDS011;39838;59.938;30.642;2024-02-23T04:31:37;18.80;;;9.18;;
48925;SDS011;39838;59.938;30.642;2024-02-23T04:34:04;16.83;;;9.95;;
48925;SDS011;39838;59.938;30.642;2024-02-23T04:36:31;14.10;;;8.40;;
48925;SDS011;39838;59.938;30.642;2024-02-23T04:38:59;16.30;;;9.35;;
48925;SDS011;39838;59.938;30.642;2024-02-23T04:41:26;14.80;;;9.13;;
48925;SDS011;39838;59.938;30.642;2024-02-23T04:43:53;15.05;;;9.05;;
48925;SDS011;39838;59.938;30.642;2024-02-23T04:46:26;14.63;;;8.60;;
48925;SDS011;39838;59.938;30.642;2024-02-23T04:48:54;15.18;;;9.05;;
48925;SDS011;39838;59.938;30.642;2024-02-23T04:51:21;15.48;;;8.80;;
48925;SDS011;39838;59.938;30.642;2024-02-23T04:53:49;15.43;;;8.73;;
48925;SDS011;39838;59.938;30.642;2024-02-23T04:56:16;14.65;;;8.63;;
48925;SDS011;39838;59.938;30.642;2024-02-23T04:58:44;15.05;;;8.40;;
48925;SDS011;39838;59.938;30.642;2024-02-23T05:01:11;16.48;;;8.60;;
48925;SDS011;39838;59.938;30.642;2024-02-23T05:03:39;15.25;;;8.77;;
48925;SDS011;39838;59.938;30.642;2024-02-23T05:06:06;16.20;;;9.02;;
48925;SDS011;39838;59.938;30.642;2024-02-23T05:08:34;14.68;;;8.57;;
48925;SDS011;39838;59.938;30.642;2024-02-23T05:11:01;12.73;;;7.97;;
48925;SDS011;39838;59.938;30.642;2024-02-23T05:13:28;14.10;;;8.73;;
48925;SDS011;39838;59.938;30.642;2024-02-23T05:15:55;14.88;;;8.77;;
48925;SDS011;39838;59.938;30.642;2024-02-23T05:18:23;14.95;;;8.85;;
48925;SDS011;39838;59.938;30.642;2024-02-23T05:20:52;15.32;;;8.35;;
48925;SDS011;39838;59.938;30.642;2024-02-23T05:23:19;14.93;;;8.38;;
48925;SDS011;39838;59.938;30.642;2024-02-23T05:25:46;15.10;;;8.93;;
48925;SDS011;39838;59.938;30.642;2024-02-23T05:28:14;15.18;;;8.27;;
48925;SDS011;39838;59.938;30.642;2024-02-23T05:30:42;13.35;;;8.68;;
48925;SDS011;39838;59.938;30.642;2024-02-23T05:33:09;15.30;;;8.75;;
48925;SDS011;39838;59.938;30.642;2024-02-23T05:35:36;13.77;;;8.50;;
48925;SDS011;39838;59.938;30.642;2024-02-23T05:38:05;11.27;;;7.55;;
48925;SDS011;39838;59.938;30.642;2024-02-23T05:40:32;14.38;;;8.60;;
48925;SDS011;39838;59.938;30.642;2024-02-23T05:42:59;14.30;;;8.70;;
48925;SDS011;39838;59.938;30.642;2024-02-23T05:45:26;12.38;;;8.38;;
48925;SDS011;39838;59.938;30.642;2024-02-23T05:47:54;14.02;;;7.88;;
48925;SDS011;39838;59.938;30.642;2024-02-23T05:50:21;12.55;;;7.97;;
48925;SDS011;39838;59.938;30.642;2024-02-23T05:52:48;12.57;;;8.05;;
48925;SDS011;39838;59.938;30.642;2024-02-23T05:55:17;14.35;;;8.13;;
48925;SDS011;39838;59.938;30.642;2024-02-23T05:57:44;12.05;;;7.82;;
48925;SDS011;39838;59.938;30.642;2024-02-23T06:00:12;12.80;;;7.55;;
48925;SDS011;39838;59.938;30.642;2024-02-23T06:02:40;12.05;;;7.20;;
48925;SDS011;39838;59.938;30.642;2024-02-23T06:05:07;12.02;;;7.03;;
48925;SDS011;39838;59.938;30.642;2024-02-23T06:07:35;11.73;;;7.18;;
48925;SDS011;39838;59.938;30.642;2024-02-23T06:10:02;12.95;;;7.55;;
48925;SDS011;39838;59.938;30.642;2024-02-23T06:12:31;13.55;;;7.50;;
48925;SDS011;39838;59.938;30.642;2024-02-23T06:14:59;11.55;;;7.07;;
48925;SDS011;39838;59.938;30.642;2024-02-23T06:17:26;10.75;;;6.95;;
48925;SDS011;39838;59.938;30.642;2024-02-23T06:19:53;12.75;;;7.30;;
48925;SDS011;39838;59.938;30.642;2024-02-23T06:22:22;11.70;;;7.05;;
48925;SDS011;39838;59.938;30.642;2024-02-23T06:24:51;11.32;;;7.00;;
48925;SDS011;39838;59.938;30.642;2024-02-23T06:27:18;12.00;;;7.53;;
48925;SDS011;39838;59.938;30.642;2024-02-23T06:29:48;12.88;;;7.60;;
48925;SDS011;39838;59.938;30.642;2024-02-23T06:32:15;12.00;;;7.03;;
48925;SDS011;39838;59.938;30.642;2024-02-23T06:34:43;10.93;;;6.82;;
48925;SDS011;39838;59.938;30.642;2024-02-23T06:37:10;11.50;;;7.18;;
48925;SDS011;39838;59.938;30.642;2024-02-23T06:39:39;15.70;;;7.50;;
48925;SDS011;39838;59.938;30.642;2024-02-23T06:42:06;12.02;;;7.65;;
48925;SDS011;39838;59.938;30.642;2024-02-23T06:44:33;11.65;;;7.05;;
48925;SDS011;39838;59.938;30.642;2024-02-23T06:47:02;13.35;;;7.75;;
48925;SDS011;39838;59.938;30.642;2024-02-23T06:49:32;11.10;;;6.93;;
48925;SDS011;39838;59.938;30.642;2024-02-23T06:51:59;13.55;;;7.60;;
48925;SDS011;39838;59.938;30.642;2024-02-23T06:54:26;11.48;;;7.43;;
48925;SDS011;39838;59.938;30.642;2024-02-23T06:56:54;13.75;;;7.55;;
48925;SDS011;39838;59.938;30.642;2024-02-23T06:59:21;10.63;;;7.63;;
48925;SDS011;39838;59.938;30.642;2024-02-23T07:01:49;11.40;;;7.35;;
48925;SDS011;39838;59.938;30.642;2024-02-23T07:04:18;11.20;;;7.28;;
48925;SDS011;39838;59.938;30.642;2024-02-23T07:06:46;14.27;;;7.13;;
48925;SDS011;39838;59.938;30.642;2024-02-23T07:09:13;12.80;;;7.22;;
48925;SDS011;39838;59.938;30.642;2024-02-23T07:11:40;12.05;;;8.20;;
48925;SDS011;39838;59.938;30.642;2024-02-23T07:14:09;12.13;;;7.78;;
48925;SDS011;39838;59.938;30.642;2024-02-23T07:16:38;14.02;;;8.20;;
48925;SDS011;39838;59.938;30.642;2024-02-23T07:19:06;12.13;;;7.78;;
48925;SDS011;39838;59.938;30.642;2024-02-23T07:21:35;14.13;;;7.55;;
48925;SDS011;39838;59.938;30.642;2024-02-23T07:24:02;13.00;;;7.50;;
48925;SDS011;39838;59.938;30.642;2024-02-23T07:26:30;12.43;;;8.23;;
48925;SDS011;39838;59.938;30.642;2024-02-23T07:28:57;13.88;;;8.70;;
48925;SDS011;39838;59.938;30.642;2024-02-23T07:31:24;13.73;;;8.23;;
48925;SDS011;39838;59.938;30.642;2024-02-23T07:33:51;15.02;;;8.27;;
48925;SDS011;39838;59.938;30.642;2024-02-23T07:36:18;12.05;;;7.72;;
48925;SDS011;39838;59.938;30.642;2024-02-23T07:38:50;13.25;;;8.52;;
48925;SDS011;39838;59.938;30.642;2024-02-23T07:41:17;12.48;;;7.95;;
48925;SDS011;39838;59.938;30.642;2024-02-23T07:43:44;14.27;;;8.25;;
48925;SDS011;39838;59.938;30.642;2024-02-23T07:46:12;12.93;;;8.40;;
48925;SDS011;39838;59.938;30.642;2024-02-23T07:48:39;14.75;;;8.68;;
48925;SDS011;39838;59.938;30.642;2024-02-23T07:51:06;15.35;;;8.55;;
48925;SDS011;39838;59.938;30.642;2024-02-23T07:53:34;13.55;;;8.20;;
48925;SDS011;39838;59.938;30.642;2024-02-23T07:56:03;13.35;;;8.27;;
48925;SDS011;39838;59.938;30.642;2024-02-23T07:58:30;12.95;;;8.25;;
48925;SDS011;39838;59.938;30.642;2024-02-23T08:00:58;12.02;;;7.53;;
48925;SDS011;39838;59.938;30.642;2024-02-23T08:03:25;13.20;;;7.70;;
48925;SDS011;39838;59.938;30.642;2024-02-23T08:05:52;11.90;;;7.05;;
48925;SDS011;39838;59.938;30.642;2024-02-23T08:08:19;10.57;;;7.13;;
48925;SDS011;39838;59.938;30.642;2024-02-23T08:10:52;11.68;;;7.63;;
48925;SDS011;39838;59.938;30.642;2024-02-23T08:13:25;11.57;;;6.60;;
48925;SDS011;39838;59.938;30.642;2024-02-23T08:15:52;11.05;;;6.63;;
48925;SDS011;39838;59.938;30.642;2024-02-23T08:18:20;10.18;;;6.90;;
48925;SDS011;39838;59.938;30.642;2024-02-23T08:20:48;12.02;;;6.88;;
48925;SDS011;39838;59.938;30.642;2024-02-23T08:23:16;11.43;;;7.03;;
48925;SDS011;39838;59.938;30.642;2024-02-23T08:25:44;11.73;;;6.80;;
48925;SDS011;39838;59.938;30.642;2024-02-23T08:28:11;12.25;;;7.60;;
48925;SDS011;39838;59.938;30.642;2024-02-23T08:30:40;12.07;;;7.10;;
48925;SDS011;39838;59.938;30.642;2024-02-23T08:33:07;10.77;;;6.88;;
48925;SDS011;39838;59.938;30.642;2024-02-23T08:35:35;11.85;;;7.28;;
48925;SDS011;39838;59.938;30.642;2024-02-23T08:38:02;13.90;;;6.95;;
48925;SDS011;39838;59.938;30.642;2024-02-23T08:40:30;11.88;;;7.50;;
48925;SDS011;39838;59.938;30.642;2024-02-23T08:42:57;10.95;;;7.32;;
48925;SDS011;39838;59.938;30.642;2024-02-23T08:45:24;12.35;;;7.85;;
48925;SDS011;39838;59.938;30.642;2024-02-23T08:47:53;12.85;;;8.10;;
48925;SDS011;39838;59.938;30.642;2024-02-23T08:50:20;13.15;;;8.43;;
48925;SDS011;39838;59.938;30.642;2024-02-23T08:52:47;12.25;;;8.18;;
48925;SDS011;39838;59.938;30.642;2024-02-23T08:55:15;12.95;;;7.80;;
48925;SDS011;39838;59.938;30.642;2024-02-23T08:57:44;12.60;;;8.65;;
48925;SDS011;39838;59.938;30.642;2024-02-23T09:00:11;11.90;;;7.68;;
48925;SDS011;39838;59.938;30.642;2024-02-23T09:02:40;12.75;;;8.30;;
48925;SDS011;39838;59.938;30.642;2024-02-23T09:05:12;13.10;;;8.05;;
48925;SDS011;39838;59.938;30.642;2024-02-23T09:07:40;12.90;;;8.57;;
48925;SDS011;39838;59.938;30.642;2024-02-23T09:10:08;13.60;;;8.20;;
48925;SDS011;39838;59.938;30.642;2024-02-23T09:12:37;14.07;;;8.32;;
48925;SDS011;39838;59.938;30.642;2024-02-23T09:15:04;12.38;;;8.10;;
48925;SDS011;39838;59.938;30.642;2024-02-23T09:17:33;13.57;;;8.23;;
48925;SDS011;39838;59.938;30.642;2024-02-23T09:20:01;12.30;;;8.00;;
48925;SDS011;39838;59.938;30.642;2024-02-23T09:22:30;16.17;;;8.25;;
48925;SDS011;39838;59.938;30.642;2024-02-23T09:24:58;12.65;;;7.90;;
48925;SDS011;39838;59.938;30.642;2024-02-23T09:27:25;12.23;;;7.63;;
48925;SDS011;39838;59.938;30.642;2024-02-23T09:29:53;13.05;;;7.88;;
48925;SDS011;39838;59.938;30.642;2024-02-23T09:32:20;13.43;;;8.15;;
48925;SDS011;39838;59.938;30.642;2024-02-23T09:34:47;11.80;;;7.65;;
48925;SDS011;39838;59.938;30.642;2024-02-23T09:37:14;12.27;;;7.07;;
48925;SDS011;39838;59.938;30.642;2024-02-23T09:39:43;11.43;;;7.25;;
48925;SDS011;39838;59.938;30.642;2024-02-23T09:42:10;12.32;;;7.55;;
48925;SDS011;39838;59.938;30.642;2024-02-23T09:44:37;11.35;;;7.55;;
48925;SDS011;39838;59.938;30.642;2024-02-23T09:47:06;11.65;;;7.80;;
48925;SDS011;39838;59.938;30.642;2024-02-23T09:49:36;13.13;;;7.72;;
48925;SDS011;39838;59.938;30.642;2024-02-23T09:52:06;12.13;;;7.72;;
48925;SDS011;39838;59.938;30.642;2024-02-23T09:54:35;10.13;;;6.70;;
48925;SDS011;39838;59.938;30.642;2024-02-23T09:57:07;11.30;;;7.30;;
48925;SDS011;39838;59.938;30.642;2024-02-23T09:59:35;11.90;;;7.43;;
48925;SDS011;39838;59.938;30.642;2024-02-23T10:02:02;13.00;;;7.45;;
48925;SDS011;39838;59.938;30.642;2024-02-23T10:04:35;12.05;;;7.60;;
48925;SDS011;39838;59.938;30.642;2024-02-23T10:07:04;14.00;;;7.10;;
48925;SDS011;39838;59.938;30.642;2024-02-23T10:09:32;12.85;;;7.68;;
48925;SDS011;39838;59.938;30.642;2024-02-23T10:11:59;11.32;;;7.30;;
48925;SDS011;39838;59.938;30.642;2024-02-23T10:14:27;11.98;;;7.35;;
48925;SDS011;39838;59.938;30.642;2024-02-23T10:16:55;12.55;;;7.80;;
48925;SDS011;39838;59.938;30.642;2024-02-23T10:19:22;9.85;;;6.80;;
48925;SDS011;39838;59.938;30.642;2024-02-23T10:21:54;11.43;;;7.43;;
48925;SDS011;39838;59.938;30.642;2024-02-23T10:24:22;10.88;;;7.00;;
48925;SDS011;39838;59.938;30.642;2024-02-23T10:26:50;14.88;;;7.68;;
48925;SDS011;39838;59.938;30.642;2024-02-23T10:29:18;12.15;;;7.88;;
48925;SDS011;39838;59.938;30.642;2024-02-23T10:31:47;11.60;;;7.05;;
48925;SDS011;39838;59.938;30.642;2024-02-23T10:34:17;14.10;;;7.72;;
48925;SDS011;39838;59.938;30.642;2024-02-23T10:36:46;11.18;;;6.88;;
48925;SDS011;39838;59.938;30.642;2024-02-23T10:39:16;12.40;;;7.60;;
48925;SDS011;39838;59.938;30.642;2024-02-23T10:41:46;11.10;;;7.72;;
48925;SDS011;39838;59.938;30.642;2024-02-23T10:44:18;11.95;;;7.43;;
48925;SDS011;39838;59.938;30.642;2024-02-23T10:46:47;11.15;;;7.45;;
48925;SDS011;39838;59.938;30.642;2024-02-23T10:49:17;12.00;;;6.95;;
48925;SDS011;39838;59.938;30.642;2024-02-23T10:51:48;11.70;;;7.32;;
48925;SDS011;39838;59.938;30.642;2024-02-23T10:54:18;11.15;;;7.10;;
48925;SDS011;39838;59.938;30.642;2024-02-23T10:56:46;12.95;;;7.88;;
48925;SDS011;39838;59.938;30.642;2024-02-23T10:59:15;12.18;;;8.65;;
48925;SDS011;39838;59.938;30.642;2024-02-23T11:01:44;11.95;;;8.02;;
48925;SDS011;39838;59.938;30.642;2024-02-23T11:04:15;12.63;;;7.30;;
48925;SDS011;39838;59.938;30.642;2024-02-23T11:06:48;10.90;;;7.35;;
48925;SDS011;39838;59.938;30.642;2024-02-23T11:09:16;12.52;;;8.05;;
48925;SDS011;39838;59.938;30.642;2024-02-23T11:11:53;12.27;;;7.30;;
48925;SDS011;39838;59.938;30.642;2024-02-23T11:14:31;14.83;;;8.20;;
48925;SDS011;39838;59.938;30.642;2024-02-23T11:17:00;12.95;;;7.43;;
48925;SDS011;39838;59.938;30.642;2024-02-23T11:19:35;12.77;;;7.55;;
48925;SDS011;39838;59.938;30.642;2024-02-23T11:22:03;11.52;;;7.10;;
48925;SDS011;39838;59.938;30.642;2024-02-23T11:24:31;12.55;;;7.68;;
48925;SDS011;39838;59.938;30.642;2024-02-23T11:26:58;11.98;;;7.43;;
48925;SDS011;39838;59.938;30.642;2024-02-23T11:29:33;13.07;;;8.25;;
48925;SDS011;39838;59.938;30.642;2024-02-23T11:32:03;13.63;;;7.88;;
48925;SDS011;39838;59.938;30.642;2024-02-23T11:34:38;13.45;;;8.40;;
48925;SDS011;39838;59.938;30.642;2024-02-23T11:37:09;11.88;;;7.63;;
48925;SDS011;39838;59.938;30.642;2024-02-23T11:39:37;11.50;;;7.68;;
48925;SDS011;39838;59.938;30.642;2024-02-23T11:42:05;13.52;;;8.07;;
48925;SDS011;39838;59.938;30.642;2024-02-23T11:44:33;13.60;;;8.05;;
48925;SDS011;39838;59.938;30.642;2024-02-23T11:47:00;12.30;;;7.68;;
48925;SDS011;39838;59.938;30.642;2024-02-23T11:49:30;13.77;;;7.93;;
48925;SDS011;39838;59.938;30.642;2024-02-23T11:51:57;12.45;;;7.55;;
48925;SDS011;39838;59.938;30.642;2024-02-23T11:54:25;12.45;;;7.50;;
48925;SDS011;39838;59.938;30.642;2024-02-23T11:56:52;12.73;;;7.75;;
48925;SDS011;39838;59.938;30.642;2024-02-23T11:59:19;11.80;;;7.07;;
48925;SDS011;39838;59.938;30.642;2024-02-23T12:01:49;14.35;;;7.95;;
48925;SDS011;39838;59.938;30.642;2024-02-23T12:04:17;13.82;;;8.00;;
48925;SDS011;39838;59.938;30.642;2024-02-23T12:06:45;13.50;;;8.13;;
48925;SDS011;39838;59.938;30.642;2024-02-23T12:09:12;12.55;;;8.00;;
48925;SDS011;39838;59.938;30.642;2024-02-23T12:11:41;13.88;;;7.72;;
48925;SDS011;39838;59.938;30.642;2024-02-23T12:14:08;13.68;;;7.85;;
48925;SDS011;39838;59.938;30.642;2024-02-23T12:16:35;14.32;;;8.80;;
48925;SDS011;39838;59.938;30.642;2024-02-23T12:19:03;14.13;;;8.32;;
48925;SDS011;39838;59.938;30.642;2024-02-23T12:21:33;11.30;;;8.02;;
48925;SDS011;39838;59.938;30.642;2024-02-23T12:24:03;13.63;;;7.82;;
48925;SDS011;39838;59.938;30.642;2024-02-23T12:26:31;13.55;;;8.18;;
48925;SDS011;39838;59.938;30.642;2024-02-23T12:29:00;12.02;;;8.23;;
48925;SDS011;39838;59.938;30.642;2024-02-23T12:31:28;11.82;;;7.43;;
48925;SDS011;39838;59.938;30.642;2024-02-23T12:33:56;12.07;;;7.88;;
48925;SDS011;39838;59.938;30.642;2024-02-23T12:36:24;15.38;;;8.48;;
48925;SDS011;39838;59.938;30.642;2024-02-23T12:38:53;13.07;;;7.90;;
48925;SDS011;39838;59.938;30.642;2024-02-23T12:41:20;12.63;;;7.90;;
48925;SDS011;39838;59.938;30.642;2024-02-23T12:43:48;13.00;;;8.25;;
48925;SDS011;39838;59.938;30.642;2024-02-23T12:46:15;12.10;;;7.78;;
48925;SDS011;39838;59.938;30.642;2024-02-23T12:48:42;13.60;;;7.45;;
48925;SDS011;39838;59.938;30.642;2024-02-23T12:51:09;13.10;;;8.45;;
48925;SDS011;39838;59.938;30.642;2024-02-23T12:53:37;13.23;;;8.13;;
48925;SDS011;39838;59.938;30.642;2024-02-23T12:56:07;10.82;;;7.82;;
48925;SDS011;39838;59.938;30.642;2024-02-23T12:58:36;12.63;;;7.72;;
48925;SDS011;39838;59.938;30.642;2024-02-23T13:01:05;13.73;;;8.38;;
48925;SDS011;39838;59.938;30.642;2024-02-23T13:03:33;14.95;;;8.55;;
48925;SDS011;39838;59.938;30.642;2024-02-23T13:06:01;12.82;;;7.85;;
48925;SDS011;39838;59.938;30.642;2024-02-23T13:08:29;13.05;;;8.20;;
48925;SDS011;39838;59.938;30.642;2024-02-23T13:10:56;14.07;;;8.07;;
48925;SDS011;39838;59.938;30.642;2024-02-23T13:13:25;13.13;;;8.43;;
48925;SDS011;39838;59.938;30.642;2024-02-23T13:15:57;14.52;;;8.10;;
48925;SDS011;39838;59.938;30.642;2024-02-23T13:18:24;14.55;;;8.38;;
48925;SDS011;39838;59.938;30.642;2024-02-23T13:20:53;12.98;;;7.97;;
48925;SDS011;39838;59.938;30.642;2024-02-23T13:23:21;12.52;;;7.95;;
48925;SDS011;39838;59.938;30.642;2024-02-23T13:25:48;14.02;;;7.88;;
48925;SDS011;39838;59.938;30.642;2024-02-23T13:28:18;15.50;;;8.88;;
48925;SDS011;39838;59.938;30.642;2024-02-23T13:30:47;12.68;;;8.27;;
48925;SDS011;39838;59.938;30.642;2024-02-23T13:33:17;12.68;;;7.95;;
48925;SDS011;39838;59.938;30.642;2024-02-23T13:35:46;15.18;;;8.80;;
48925;SDS011;39838;59.938;30.642;2024-02-23T13:38:16;15.40;;;8.82;;
48925;SDS011;39838;59.938;30.642;2024-02-23T13:40:43;16.20;;;9.20;;
48925;SDS011;39838;59.938;30.642;2024-02-23T13:43:11;14.95;;;8.90;;
48925;SDS011;39838;59.938;30.642;2024-02-23T13:45:49;14.32;;;8.43;;
48925;SDS011;39838;59.938;30.642;2024-02-23T13:48:21;15.57;;;9.00;;
48925;SDS011;39838;59.938;30.642;2024-02-23T13:50:49;14.98;;;8.60;;
48925;SDS011;39838;59.938;30.642;2024-02-23T13:53:16;14.82;;;8.82;;
48925;SDS011;39838;59.938;30.642;2024-02-23T13:55:44;13.23;;;8.15;;
48925;SDS011;39838;59.938;30.642;2024-02-23T13:58:14;15.05;;;8.85;;
48925;SDS011;39838;59.938;30.642;2024-02-23T14:00:42;14.82;;;9.20;;
48925;SDS011;39838;59.938;30.642;2024-02-23T14:03:12;14.45;;;9.10;;
48925;SDS011;39838;59.938;30.642;2024-02-23T14:05:52;17.05;;;9.23;;
48925;SDS011;39838;59.938;30.642;2024-02-23T14:08:19;16.45;;;9.25;;
48925;SDS011;39838;59.938;30.642;2024-02-23T14:10:46;16.00;;;9.80;;
48925;SDS011;39838;59.938;30.642;2024-02-23T14:13:13;15.50;;;8.93;;
48925;SDS011;39838;59.938;30.642;2024-02-23T14:15:41;17.80;;;9.75;;
48925;SDS011;39838;59.938;30.642;2024-02-23T14:18:12;15.10;;;9.82;;
48925;SDS011;39838;59.938;30.642;2024-02-23T14:20:39;17.92;;;10.02;;
48925;SDS011;39838;59.938;30.642;2024-02-23T14:23:07;17.92;;;10.35;;